Time,TemperatureF,DewpointF,PressureIn,WindDirection,WindDirectionDegrees,WindSpeedMPH,WindSpeedGustMPH,Humidity,HourlyPrecipIn,Conditions,Clouds,dailyrainin,SolarRadiationWatts/m^2,SoftwareType,DateUTC
2013-01-31 07:03:00,18.0,16.0,-100.00,SSW,213,1.0,4.0,91,-99.99,,,-99.99,0.000000,,2013-01-31 14:03:00,
2013-01-31 08:03:00,18.0,15.0,-100.00,ESE,114,1.0,4.0,89,-99.99,,,0.00,5.000000,,2013-01-31 15:03:00,
2013-01-31 08:42:00,30.0,24.0,-100.00,South,174,1.0,3.0,78,-99.99,,,0.00,95.000000,,2013-01-31 15:42:00,
2013-01-31 09:03:00,30.0,24.0,-100.00,South,174,1.0,3.0,78,-99.99,,,0.00,95.000000,,2013-01-31 16:03:00,
2013-01-31 09:12:00,30.0,24.0,-100.00,South,174,1.0,3.0,78,-99.99,,,0.00,95.000000,,2013-01-31 16:12:00,
2013-01-31 09:22:00,30.0,24.0,-100.00,South,174,1.0,3.0,78,-99.99,,,0.00,95.000000,,2013-01-31 16:22:00,
2013-01-31 09:33:00,30.0,24.0,-100.00,South,174,1.0,3.0,78,-99.99,,,0.00,95.000000,,2013-01-31 16:33:00,
2013-01-31 09:42:00,39.0,25.0,-100.00,SSE,165,3.0,5.0,56,0.00,,,0.00,230.000000,,2013-01-31 16:42:00,
2013-01-31 10:03:00,39.0,25.0,-100.00,SSE,165,3.0,5.0,56,0.00,,,0.00,230.000000,,2013-01-31 17:03:00,
2013-01-31 10:12:00,39.0,25.0,-100.00,SSE,165,3.0,5.0,56,0.00,,,0.00,230.000000,,2013-01-31 17:12:00,
2013-01-31 10:23:00,39.0,25.0,-100.00,SSE,165,3.0,5.0,56,0.00,,,0.00,230.000000,,2013-01-31 17:23:00,
2013-01-31 10:32:00,39.0,25.0,-100.00,SSE,165,3.0,5.0,56,0.00,,,0.00,230.000000,,2013-01-31 17:32:00,
2013-01-31 10:42:00,46.0,24.0,-100.00,NW,306,4.0,10.0,41,0.00,,,0.00,513.000000,,2013-01-31 17:42:00,
2013-01-31 11:03:00,46.0,24.0,-100.00,NW,306,4.0,10.0,41,0.00,,,0.00,513.000000,,2013-01-31 18:03:00,
2013-01-31 11:12:00,46.0,24.0,-100.00,NW,306,4.0,10.0,41,0.00,,,0.00,513.000000,,2013-01-31 18:12:00,
2013-01-31 11:22:00,46.0,24.0,-100.00,NW,306,4.0,10.0,41,0.00,,,0.00,513.000000,,2013-01-31 18:22:00,
2013-01-31 11:32:00,46.0,24.0,-100.00,NW,306,4.0,10.0,41,0.00,,,0.00,513.000000,,2013-01-31 18:32:00,
2013-01-31 11:42:00,49.0,23.0,-100.00,NW,318,6.0,14.0,35,0.00,,,0.00,615.000000,,2013-01-31 18:42:00,
2013-01-31 12:02:00,49.0,23.0,-100.00,NW,318,6.0,14.0,35,0.00,,,0.00,615.000000,,2013-01-31 19:02:00,
2013-01-31 12:12:00,49.0,23.0,-100.00,NW,318,6.0,14.0,35,0.00,,,0.00,615.000000,,2013-01-31 19:12:00,
2013-01-31 12:22:00,49.0,23.0,-100.00,NW,318,6.0,14.0,35,0.00,,,0.00,615.000000,,2013-01-31 19:22:00,
2013-01-31 12:32:00,49.0,23.0,-100.00,NW,318,6.0,14.0,35,0.00,,,0.00,615.000000,,2013-01-31 19:32:00,
2013-01-31 12:42:00,52.0,21.0,-100.00,WNW,289,6.0,13.0,29,0.00,,,0.00,676.000000,,2013-01-31 19:42:00,
2013-01-31 13:02:00,52.0,21.0,-100.00,WNW,289,6.0,13.0,29,0.00,,,0.00,676.000000,,2013-01-31 20:02:00,
2013-01-31 13:11:00,52.0,21.0,-100.00,WNW,289,6.0,13.0,29,0.00,,,0.00,676.000000,,2013-01-31 20:11:00,
2013-01-31 13:22:00,52.0,21.0,-100.00,WNW,289,6.0,13.0,29,0.00,,,0.00,676.000000,,2013-01-31 20:22:00,
2013-01-31 13:31:00,52.0,21.0,-100.00,WNW,289,6.0,13.0,29,0.00,,,0.00,676.000000,,2013-01-31 20:31:00,
2013-01-31 13:42:00,54.0,22.0,-100.00,West,274,6.0,13.0,28,0.00,,,0.00,656.000000,,2013-01-31 20:42:00,
2013-01-31 14:02:00,54.0,22.0,-100.00,West,274,6.0,13.0,28,0.00,,,0.00,656.000000,,2013-01-31 21:02:00,
2013-01-31 14:12:00,54.0,22.0,-100.00,West,274,6.0,13.0,28,0.00,,,0.00,656.000000,,2013-01-31 21:12:00,
2013-01-31 14:22:00,54.0,22.0,-100.00,West,274,6.0,13.0,28,0.00,,,0.00,656.000000,,2013-01-31 21:22:00,
2013-01-31 14:32:00,54.0,22.0,-100.00,West,274,6.0,13.0,28,0.00,,,0.00,656.000000,,2013-01-31 21:32:00,
2013-01-31 14:42:00,55.0,22.0,-100.00,West,267,5.0,11.0,27,0.00,,,0.00,560.000000,,2013-01-31 21:42:00,
2013-01-31 15:03:00,55.0,22.0,-100.00,West,267,5.0,11.0,27,0.00,,,0.00,560.000000,,2013-01-31 22:03:00,
2013-01-31 15:11:00,55.0,22.0,-100.00,West,267,5.0,11.0,27,0.00,,,0.00,560.000000,,2013-01-31 22:11:00,
2013-01-31 15:22:00,55.0,22.0,-100.00,West,267,5.0,11.0,27,0.00,,,0.00,560.000000,,2013-01-31 22:22:00,
2013-01-31 15:33:00,55.0,22.0,-100.00,West,267,5.0,11.0,27,0.00,,,0.00,560.000000,,2013-01-31 22:33:00,
2013-01-31 15:42:00,53.0,17.0,-100.00,NW,320,4.0,11.0,24,0.00,,,0.00,333.000000,,2013-01-31 22:42:00,
2013-01-31 16:02:00,53.0,17.0,-100.00,NW,320,4.0,11.0,24,0.00,,,0.00,333.000000,,2013-01-31 23:02:00,
2013-01-31 16:12:00,53.0,17.0,-100.00,NW,320,4.0,11.0,24,0.00,,,0.00,333.000000,,2013-01-31 23:12:00,
2013-01-31 16:22:00,53.0,17.0,-100.00,NW,320,4.0,11.0,24,0.00,,,0.00,333.000000,,2013-01-31 23:22:00,
2013-01-31 16:32:00,53.0,17.0,-100.00,NW,320,4.0,11.0,24,0.00,,,0.00,333.000000,,2013-01-31 23:32:00,
2013-01-31 16:42:00,52.0,17.0,-100.00,WNW,293,5.0,7.0,25,0.00,,,0.00,96.000000,,2013-01-31 23:42:00,
2013-01-31 17:01:00,52.0,17.0,-100.00,WNW,293,5.0,7.0,25,0.00,,,0.00,96.000000,,2013-02-01 00:01:00,
2013-01-31 17:11:00,52.0,17.0,-100.00,WNW,293,5.0,7.0,25,0.00,,,0.00,96.000000,,2013-02-01 00:11:00,
2013-01-31 17:22:00,52.0,17.0,-100.00,WNW,293,5.0,7.0,25,0.00,,,0.00,96.000000,,2013-02-01 00:22:00,
2013-01-31 17:32:00,52.0,17.0,-100.00,WNW,293,5.0,7.0,25,0.00,,,0.00,96.000000,,2013-02-01 00:32:00,
2013-01-31 17:42:00,47.0,19.0,-100.00,NNW,336,2.0,7.0,33,0.00,,,0.00,19.000000,,2013-02-01 00:42:00,
2013-01-31 18:01:00,47.0,19.0,-100.00,NNW,336,2.0,7.0,33,0.00,,,0.00,19.000000,,2013-02-01 01:01:00,
2013-01-31 18:11:00,47.0,19.0,-100.00,NNW,336,2.0,7.0,33,0.00,,,0.00,19.000000,,2013-02-01 01:11:00,
2013-01-31 18:21:00,47.0,19.0,-100.00,NNW,336,2.0,7.0,33,0.00,,,0.00,19.000000,,2013-02-01 01:21:00,
2013-01-31 18:32:00,47.0,19.0,-100.00,NNW,336,2.0,7.0,33,0.00,,,0.00,19.000000,,2013-02-01 01:32:00,
2013-01-31 19:02:00,38.0,19.0,-100.00,NE,47,1.0,3.0,45,0.00,,,0.00,0.000000,,2013-02-01 02:02:00,
2013-01-31 20:02:00,38.0,21.0,-100.00,NE,37,1.0,7.0,49,0.00,,,0.00,0.000000,,2013-02-01 03:02:00,
2013-01-31 20:12:00,38.0,21.0,-100.00,NE,37,1.0,7.0,49,0.00,,,0.00,0.000000,,2013-02-01 03:12:00,
2013-01-31 20:21:00,38.0,21.0,-100.00,NE,37,1.0,7.0,49,0.00,,,0.00,0.000000,,2013-02-01 03:21:00,
2013-01-31 20:32:00,38.0,21.0,-100.00,NE,37,1.0,7.0,49,0.00,,,0.00,0.000000,,2013-02-01 03:32:00,
2013-01-31 20:41:00,38.0,21.0,-100.00,NE,37,1.0,7.0,49,0.00,,,0.00,0.000000,,2013-02-01 03:41:00,
2013-01-31 21:02:00,36.0,21.0,-100.00,North,359,0.0,5.0,53,0.00,,,0.00,0.000000,,2013-02-01 04:02:00,
2013-01-31 21:11:00,36.0,21.0,-100.00,North,359,0.0,5.0,53,0.00,,,0.00,0.000000,,2013-02-01 04:11:00,
2013-01-31 21:21:00,36.0,21.0,-100.00,North,359,0.0,5.0,53,0.00,,,0.00,0.000000,,2013-02-01 04:21:00,
2013-01-31 21:32:00,36.0,21.0,-100.00,North,359,0.0,5.0,53,0.00,,,0.00,0.000000,,2013-02-01 04:32:00,
2013-01-31 21:41:00,36.0,21.0,-100.00,North,359,0.0,5.0,53,0.00,,,0.00,0.000000,,2013-02-01 04:41:00,
2013-01-31 22:03:00,30.0,21.0,-100.00,South,169,0.0,3.0,69,0.00,,,0.00,0.000000,,2013-02-01 05:03:00,
2013-01-31 23:02:00,26.0,22.0,-100.00,NNE,31,0.0,0.0,83,0.00,,,0.00,0.000000,,2013-02-01 06:02:00,